Krotz Springs, Louisiana
Current Conditions -  °F | °C
As of 7:35 PM on Friday 19 Dec 2014 (Local Time) from KHZR Reporting Station
Light Rain Light Rain  
Wind Chill: 43°   Ceiling: 700
Heat Index: 47°   Visibility: 10mi
Dew Point: 46°   Wind: 8mph
Humidity: 96%   Direction: 70°ENE
Pressure: 30.1"   Gusts: NA
Location:  30.54°N, 91.75°W
Report Text: KHZR 200135Z AUTO 07007KT 10SM -RA OVC007 08/08 A3010 RMK AO2 P0001 T00820076
Loading
Personal Weather Stations






























Interactive Weather Map New forecast layout! Learn more

10-Day Weather Forecast

Advertisements
Track Severe Weather on mobile